Time;durP1;ratioP1;P1;durP2;ratioP2;P2;SDS_P1;SDS_P2;PMS_P1;PMS_P2;Temp;Humidity;BMP_temperature;BMP_pressure;BME280_temperature;BME280_humidity;BME280_pressure;Samples;Min_cycle;Max_cycle;Signal;HPM_P1;HPM_P2
2021/08/12 00:01:26;;;;;;;16.25;10.05;;;19.20;98.20;;;;;;5010677;28;20235;-68
2021/08/12 00:03:53;;;;;;;15.73;8.73;;;19.20;98.20;;;;;;5011924;28;20224;-68
2021/08/12 00:06:20;;;;;;;12.55;8.18;;;19.20;98.20;;;;;;5010418;28;20273;-69
2021/08/12 00:08:47;;;;;;;11.48;7.93;;;19.20;98.30;;;;;;5012288;28;20200;-68
2021/08/12 00:11:14;;;;;;;14.00;8.00;;;19.10;98.30;;;;;;5010961;28;20220;-67
2021/08/12 00:13:41;;;;;;;12.90;7.82;;;19.10;98.40;;;;;;5008185;28;20248;-66
2021/08/12 00:16:07;;;;;;;12.13;8.00;;;19.10;98.40;;;;;;5010458;28;20209;-67
2021/08/12 00:18:36;;;;;;;11.23;7.90;;;19.10;98.50;;;;;;5008430;28;20764;-67
2021/08/12 00:21:02;;;;;;;11.55;7.95;;;19.10;98.50;;;;;;5007649;28;20953;-67
2021/08/12 00:23:29;;;;;;;14.85;8.13;;;19.10;98.60;;;;;;5009765;28;20267;-69
2021/08/12 00:25:56;;;;;;;16.23;8.35;;;19.00;98.60;;;;;;5006062;28;20223;-69
2021/08/12 00:28:24;;;;;;;13.73;7.22;;;19.00;98.70;;;;;;5010787;28;20224;-69
2021/08/12 00:30:51;;;;;;;12.70;7.60;;;19.00;98.70;;;;;;5012210;28;20215;-68
2021/08/12 00:33:17;;;;;;;17.88;7.93;;;19.00;98.70;;;;;;5010033;28;20684;-68
2021/08/12 00:35:46;;;;;;;14.32;7.55;;;19.00;98.70;;;;;;5007123;28;20585;-68
2021/08/12 00:38:13;;;;;;;12.80;7.90;;;19.00;98.70;;;;;;5012482;28;20223;-68
2021/08/12 00:40:43;;;;;;;13.82;7.75;;;19.00;98.70;;;;;;5007654;28;20212;-68
2021/08/12 00:43:11;;;;;;;13.80;8.93;;;19.00;98.70;;;;;;5010363;28;20215;-69
2021/08/12 00:45:38;;;;;;;9.20;7.57;;;19.00;98.70;;;;;;5009342;28;20232;-69
2021/08/12 00:48:06;;;;;;;12.27;7.90;;;18.90;98.70;;;;;;5006690;28;20216;-68
2021/08/12 00:50:35;;;;;;;12.40;8.15;;;18.90;98.80;;;;;;5004404;28;20209;-64
2021/08/12 00:53:05;;;;;;;15.55;8.20;;;18.90;98.80;;;;;;5010344;28;20212;-68
2021/08/12 00:55:32;;;;;;;11.43;7.72;;;18.90;98.80;;;;;;5008904;28;20214;-68
2021/08/12 00:57:59;;;;;;;15.35;8.10;;;18.90;98.90;;;;;;5012385;28;20295;-69
2021/08/12 01:00:26;;;;;;;12.07;8.20;;;18.80;99.00;;;;;;5011207;28;20602;-65
2021/08/12 01:02:53;;;;;;;12.80;8.20;;;18.80;99.00;;;;;;5007051;28;20232;-68
2021/08/12 01:05:20;;;;;;;17.30;9.48;;;18.80;99.00;;;;;;5010145;28;20275;-68
2021/08/12 01:07:56;;;;;;;16.17;8.40;;;18.80;99.10;;;;;;5008439;28;20232;-69
2021/08/12 01:10:32;;;;;;;13.45;7.93;;;18.80;99.10;;;;;;5006268;28;20204;-69
2021/08/12 01:13:06;;;;;;;14.50;8.40;;;18.80;99.10;;;;;;5005945;28;20701;-70
2021/08/12 01:15:38;;;;;;;15.23;8.20;;;18.70;99.10;;;;;;5009706;28;20632;-68
2021/08/12 01:18:11;;;;;;;13.90;8.60;;;18.70;99.20;;;;;;5010453;28;20209;-70
2021/08/12 01:21:18;;;;;;;13.48;8.70;;;18.70;99.20;;;;;;5007076;28;20200;-68
2021/08/12 01:23:47;;;;;;;15.30;8.40;;;18.70;99.20;;;;;;5009360;28;20220;-68
2021/08/12 01:26:18;;;;;;;17.65;8.65;;;18.70;99.20;;;;;;5009519;28;20214;-67
2021/08/12 01:28:48;;;;;;;15.60;8.88;;;18.60;99.20;;;;;;5000768;28;20289;-67
2021/08/12 01:31:34;;;;;;;17.17;8.27;;;18.60;99.30;;;;;;5008420;28;20216;-67
2021/08/12 01:34:08;;;;;;;15.88;8.32;;;18.60;99.30;;;;;;5007836;28;20203;-69
2021/08/12 01:36:41;;;;;;;13.38;8.30;;;18.60;99.40;;;;;;5004280;28;20669;-67
2021/08/12 01:39:11;;;;;;;15.57;9.25;;;18.50;99.40;;;;;;5009128;28;20236;-70
2021/08/12 01:41:40;;;;;;;14.43;9.10;;;18.50;99.50;;;;;;5011895;28;20684;-68
2021/08/12 01:44:08;;;;;;;13.50;8.63;;;18.50;99.50;;;;;;5012237;28;20716;-67
2021/08/12 01:46:36;;;;;;;15.02;8.75;;;18.50;99.60;;;;;;5008481;28;20568;-68
2021/08/12 01:49:05;;;;;;;13.68;9.50;;;18.40;99.70;;;;;;5014611;28;20372;-69
2021/08/12 01:51:35;;;;;;;13.20;9.23;;;18.40;99.90;;;;;;5007572;28;20677;-66
2021/08/12 01:54:06;;;;;;;13.75;9.18;;;18.40;99.90;;;;;;5004590;28;20288;-69
2021/08/12 01:56:37;;;;;;;12.85;9.18;;;18.40;99.90;;;;;;5008833;28;20212;-68
2021/08/12 01:59:06;;;;;;;13.57;10.00;;;18.30;99.90;;;;;;5008392;28;20706;-67
2021/08/12 02:01:33;;;;;;;17.10;10.10;;;18.30;99.90;;;;;;5016712;28;20208;-66
2021/08/12 02:04:01;;;;;;;17.48;10.10;;;18.30;99.90;;;;;;5005405;28;20708;-69
2021/08/12 02:06:34;;;;;;;16.00;10.00;;;18.20;99.90;;;;;;5010025;28;20258;-68
2021/08/12 02:09:01;;;;;;;14.45;10.05;;;18.20;99.90;;;;;;5016485;28;20208;-67
2021/08/12 02:11:31;;;;;;;14.25;9.50;;;18.20;99.90;;;;;;5012768;28;20200;-69
2021/08/12 02:13:58;;;;;;;15.38;11.02;;;18.20;99.90;;;;;;5014523;28;20217;-66
2021/08/12 02:16:25;;;;;;;18.67;11.75;;;18.20;99.90;;;;;;5016214;28;20254;-69
2021/08/12 02:18:53;;;;;;;19.10;11.60;;;18.20;99.90;;;;;;5015825;28;20211;-69
2021/08/12 02:21:24;;;;;;;18.15;12.50;;;18.20;99.90;;;;;;5005406;28;20204;-68
2021/08/12 02:23:59;;;;;;;17.48;12.55;;;18.20;99.90;;;;;;5008381;28;20625;-69
2021/08/12 02:26:32;;;;;;;22.15;12.77;;;18.20;99.90;;;;;;5002747;28;20646;-71
2021/08/12 02:29:01;;;;;;;23.50;13.07;;;18.10;99.90;;;;;;5013335;28;20207;-69
2021/08/12 02:31:29;;;;;;;;;;;18.10;99.90;;;;;;5015286;28;20554;-70
2021/08/12 02:33:58;;;;;;;19.92;13.85;;;18.10;99.90;;;;;;5005262;28;20420;-70
2021/08/12 02:36:26;;;;;;;26.02;15.18;;;18.10;99.90;;;;;;5004756;28;20212;-68
2021/08/12 02:38:53;;;;;;;;;;;18.10;99.90;;;;;;5004798;28;19997;-68
2021/08/12 02:41:21;;;;;;;;;;;18.00;99.90;;;;;;5008756;28;19962;-70
2021/08/12 02:43:51;;;;;;;;;;;18.00;99.90;;;;;;5008746;28;19962;-68
2021/08/12 02:46:22;;;;;;;;;;;18.00;99.90;;;;;;5004852;28;20304;-70
2021/08/12 02:48:50;;;;;;;;;;;18.00;99.90;;;;;;5009024;28;20350;-70
2021/08/12 02:51:17;;;;;;;;;;;18.00;99.90;;;;;;5002729;28;19969;-68
2021/08/12 02:53:44;;;;;;;;;;;18.00;99.90;;;;;;5009237;28;20794;-70
2021/08/12 02:56:11;;;;;;;;;;;18.00;99.90;;;;;;5007278;28;20312;-69
2021/08/12 02:58:41;;;;;;;;;;;18.00;99.90;;;;;;5015431;28;20343;-69
2021/08/12 03:01:10;;;;;;;;;;;18.00;99.90;;;;;;5017753;28;20417;-68
2021/08/12 03:03:37;;;;;;;;;;;18.00;99.90;;;;;;5005691;28;19969;-68
2021/08/12 03:06:04;;;;;;;;;;;18.00;99.90;;;;;;5013113;28;19970;-68
2021/08/12 03:08:32;;;;;;;;;;;18.00;99.90;;;;;;5006391;28;19962;-67
2021/08/12 03:10:59;;;;;;;;;;;18.00;99.90;;;;;;5008636;28;20501;-68
2021/08/12 03:13:30;;;;;;;;;;;18.00;99.90;;;;;;5008673;28;20061;-66
2021/08/12 03:15:56;;;;;;;;;;;18.00;99.90;;;;;;5007683;28;19964;-69
2021/08/12 03:18:25;;;;;;;;;;;18.00;99.90;;;;;;5003782;28;20505;-69
2021/08/12 03:20:51;;;;;;;;;;;18.00;99.90;;;;;;5006425;28;19966;-70
2021/08/12 03:23:20;;;;;;;;;;;18.00;99.90;;;;;;5001444;28;19970;-69
2021/08/12 03:25:47;;;;;;;;;;;18.00;99.90;;;;;;5012384;28;20438;-67
2021/08/12 03:28:14;;;;;;;;;;;18.00;99.90;;;;;;5010167;28;20350;-67
2021/08/12 03:30:40;;;;;;;;;;;18.00;99.90;;;;;;5012257;28;19966;-66
2021/08/12 03:33:09;;;;;;;;;;;18.00;99.90;;;;;;5009962;28;20073;-68
2021/08/12 03:35:37;;;;;;;;;;;18.00;99.90;;;;;;5011338;28;20012;-69
2021/08/12 03:38:04;;;;;;;;;;;18.00;99.90;;;;;;5012955;28;19970;-69
2021/08/12 03:40:31;;;;;;;;;;;18.00;99.90;;;;;;5012609;28;20084;-67
2021/08/12 03:42:58;;;;;;;;;;;18.00;99.90;;;;;;5010623;28;19974;-69
2021/08/12 03:45:25;;;;;;;;;;;18.00;99.90;;;;;;5010787;28;19972;-69
2021/08/12 03:47:51;;;;;;;;;;;18.00;99.90;;;;;;5016396;28;20060;-68
2021/08/12 03:50:18;;;;;;;;;;;18.00;99.90;;;;;;5010637;28;19966;-68
2021/08/12 03:52:46;;;;;;;;;;;17.90;99.90;;;;;;5013851;28;19992;-70
2021/08/12 03:55:13;;;;;;;;;;;17.90;99.90;;;;;;5008904;28;19963;-67
2021/08/12 03:57:44;;;;;;;;;;;17.90;99.90;;;;;;5006200;28;20065;-69
2021/08/12 04:00:12;;;;;;;;;;;17.90;99.90;;;;;;5016441;28;19973;-67
2021/08/12 04:02:47;;;;;;;;;;;17.90;99.90;;;;;;5013672;28;19966;-69
2021/08/12 04:05:14;;;;;;;;;;;17.90;99.90;;;;;;5006980;28;20016;-69
2021/08/12 04:07:41;;;;;;;;;;;17.80;99.90;;;;;;5013966;28;20012;-69
2021/08/12 04:10:10;;;;;;;;;;;17.80;99.90;;;;;;5010441;28;19966;-69
2021/08/12 04:12:37;;;;;;;;;;;17.80;99.90;;;;;;5011525;28;19969;-69
2021/08/12 04:15:05;;;;;;;;;;;17.70;99.90;;;;;;5004940;28;19998;-68
2021/08/12 04:17:32;;;;;;;;;;;17.70;99.90;;;;;;5011160;28;19966;-69
2021/08/12 04:19:59;;;;;;;;;;;17.70;99.90;;;;;;5008076;28;19976;-66
2021/08/12 04:22:27;;;;;;;;;;;17.60;99.90;;;;;;5010964;28;19989;-69
2021/08/12 04:24:53;;;;;;;;;;;17.60;99.90;;;;;;5013879;28;19958;-69
2021/08/12 04:27:21;;;;;;;;;;;17.60;99.90;;;;;;5010838;28;19962;-68
2021/08/12 04:29:48;;;;;;;;;;;17.60;99.90;;;;;;5011855;28;20008;-69
2021/08/12 04:32:15;;;;;;;;;;;17.60;99.90;;;;;;5010429;28;20009;-67
2021/08/12 04:34:42;;;;;;;;;;;17.60;99.90;;;;;;5007442;28;19958;-69
2021/08/12 04:37:09;;;;;;;;;;;17.60;99.90;;;;;;5006266;28;20428;-68
2021/08/12 04:39:36;;;;;;;;;;;17.50;99.90;;;;;;5009417;28;19995;-70
2021/08/12 04:42:02;;;;;;;;;;;17.60;99.90;;;;;;5002694;28;19965;-70
2021/08/12 04:44:30;;;;;;;;;;;17.50;99.90;;;;;;5012373;28;19965;-69
2021/08/12 04:46:57;;;;;;;;;;;17.50;99.90;;;;;;5012711;28;20450;-67
2021/08/12 04:49:24;;;;;;;;;;;17.50;99.90;;;;;;5006292;28;19958;-72
2021/08/12 04:51:50;;;;;;;;;;;17.50;99.90;;;;;;5006431;28;19958;-69
2021/08/12 04:54:17;;;;;;;;;;;17.50;99.90;;;;;;5005176;28;20000;-70
2021/08/12 04:56:44;;;;;;;;;;;17.50;99.90;;;;;;5010174;28;19981;-69
2021/08/12 04:59:11;;;;;;;;;;;17.50;99.90;;;;;;5013455;28;20002;-67
2021/08/12 05:01:39;;;;;;;;;;;17.50;99.90;;;;;;5011689;28;19958;-69
2021/08/12 05:04:06;;;;;;;;;;;17.50;99.90;;;;;;5005617;28;19962;-69
2021/08/12 05:06:33;;;;;;;;;;;17.50;99.90;;;;;;5009681;28;20732;-67
2021/08/12 05:08:59;;;;;;;;;;;17.50;99.90;;;;;;5009994;28;19973;-69
2021/08/12 05:11:26;;;;;;;;;;;17.50;99.90;;;;;;5011874;28;20012;-70
2021/08/12 05:13:53;;;;;;;;;;;17.50;99.90;;;;;;5013732;28;20593;-69
2021/08/12 05:16:20;;;;;;;;;;;17.50;99.90;;;;;;5012122;28;19962;-69
2021/08/12 05:18:48;;;;;;;;;;;17.50;99.90;;;;;;5007572;28;19980;-69
2021/08/12 05:21:15;;;;;;;;;;;17.50;99.90;;;;;;5005345;28;20328;-69
2021/08/12 05:23:44;;;;;;;;;;;17.50;99.90;;;;;;5027118;28;20471;-69
2021/08/12 05:26:12;;;;;;;;;;;17.50;99.90;;;;;;5010511;28;20315;-71
2021/08/12 05:28:41;;;;;;;;;;;17.50;99.90;;;;;;5002744;28;19961;-68
2021/08/12 05:31:08;;;;;;;;;;;17.50;99.90;;;;;;5010909;28;20417;-66
2021/08/12 05:33:36;;;;;;;;;;;17.50;99.90;;;;;;5008107;28;19962;-67
2021/08/12 05:36:04;;;;;;;;;;;17.50;99.90;;;;;;5009353;28;19965;-67
2021/08/12 05:38:32;;;;;;;;;;;17.50;99.90;;;;;;5003238;28;20049;-68
2021/08/12 05:40:59;;;;;;;42.47;25.02;;;17.50;99.90;;;;;;5008159;28;20326;-68
2021/08/12 05:43:26;;;;;;;38.58;26.45;;;17.50;99.90;;;;;;5006960;28;20611;-69
2021/08/12 05:45:54;;;;;;;42.30;26.75;;;17.50;99.90;;;;;;5009623;28;20666;-66
2021/08/12 05:48:21;;;;;;;44.35;26.67;;;17.60;99.90;;;;;;5005216;28;20728;-66
2021/08/12 05:50:48;;;;;;;40.92;24.77;;;17.60;99.90;;;;;;5007662;28;20200;-67
2021/08/12 05:53:19;;;;;;;39.92;25.63;;;17.60;99.90;;;;;;5010163;28;20207;-67
2021/08/12 05:55:47;;;;;;;39.63;26.27;;;17.60;99.90;;;;;;5004404;28;20225;-66
2021/08/12 05:58:13;;;;;;;40.97;25.00;;;17.60;99.90;;;;;;5007753;28;20215;-68
2021/08/12 06:00:40;;;;;;;38.42;25.02;;;17.60;99.90;;;;;;5006943;28;20204;-67
2021/08/12 06:03:09;;;;;;;40.75;24.27;;;17.60;99.90;;;;;;5007682;28;20267;-68
2021/08/12 06:05:37;;;;;;;40.65;24.15;;;17.60;99.90;;;;;;5006335;28;20216;-69
2021/08/12 06:08:06;;;;;;;33.95;23.23;;;17.60;99.90;;;;;;5000422;28;20192;-68
2021/08/12 06:10:36;;;;;;;36.58;22.80;;;17.70;99.90;;;;;;5008625;28;20282;-68
2021/08/12 06:13:03;;;;;;;37.03;23.02;;;17.70;99.90;;;;;;5005936;28;20240;-70
2021/08/12 06:15:35;;;;;;;33.83;23.17;;;17.70;99.90;;;;;;5011209;28;20209;-68
2021/08/12 06:18:07;;;;;;;29.25;20.98;;;17.70;99.90;;;;;;5007878;28;20219;-69
2021/08/12 06:20:34;;;;;;;40.03;22.67;;;17.80;99.90;;;;;;5008964;28;20267;-69
2021/08/12 06:23:05;;;;;;;34.40;22.00;;;17.90;99.90;;;;;;5005376;28;20215;-67
2021/08/12 06:25:32;;;;;;;33.28;22.10;;;17.90;99.90;;;;;;5003806;28;20220;-69
2021/08/12 06:28:00;;;;;;;37.47;21.83;;;17.90;99.90;;;;;;5007136;28;20938;-68
2021/08/12 06:30:27;;;;;;;34.47;22.63;;;17.90;99.90;;;;;;5008498;28;20576;-68
2021/08/12 06:32:54;;;;;;;34.72;21.52;;;18.00;99.90;;;;;;5008786;28;20212;-70
2021/08/12 06:35:21;;;;;;;35.85;21.25;;;18.00;99.90;;;;;;5004753;28;20603;-69
2021/08/12 06:37:51;;;;;;;33.03;20.30;;;18.10;99.90;;;;;;5007905;28;20228;-65
2021/08/12 06:40:21;;;;;;;32.92;20.52;;;18.20;99.90;;;;;;5009322;28;20192;-66
2021/08/12 06:42:49;;;;;;;35.28;20.40;;;18.20;99.90;;;;;;5007336;28;20200;-68
2021/08/12 06:45:20;;;;;;;28.83;18.50;;;18.20;99.90;;;;;;5007171;28;20212;-68
2021/08/12 06:47:49;;;;;;;32.13;18.45;;;18.30;99.90;;;;;;5001913;28;20216;-65
2021/08/12 06:50:19;;;;;;;26.77;17.42;;;18.30;99.90;;;;;;5001107;28;20212;-65
2021/08/12 06:52:46;;;;;;;27.63;16.00;;;18.30;99.90;;;;;;5007732;28;20196;-67
2021/08/12 06:55:14;;;;;;;30.05;16.60;;;18.30;99.90;;;;;;5010795;28;20204;-67
2021/08/12 06:57:41;;;;;;;24.98;16.05;;;18.40;99.90;;;;;;5008780;28;20286;-67
2021/08/12 07:00:10;;;;;;;23.23;13.73;;;18.50;99.90;;;;;;5006207;28;20205;-69
2021/08/12 07:02:39;;;;;;;25.00;14.40;;;18.50;99.90;;;;;;5007916;28;20200;-66
2021/08/12 07:05:06;;;;;;;23.98;13.07;;;18.50;99.90;;;;;;5006208;28;20204;-70
2021/08/12 07:07:33;;;;;;;23.63;13.32;;;18.60;99.90;;;;;;5012541;28;20204;-69
2021/08/12 07:10:00;;;;;;;21.60;13.20;;;18.60;99.90;;;;;;5009820;28;20208;-71
2021/08/12 07:12:27;;;;;;;20.80;13.35;;;18.70;99.90;;;;;;5009250;28;20238;-70
2021/08/12 07:14:55;;;;;;;24.88;13.95;;;18.70;99.90;;;;;;5010935;28;20204;-66
2021/08/12 07:17:22;;;;;;;22.50;12.68;;;18.70;99.90;;;;;;5011969;28;20200;-71
2021/08/12 07:19:50;;;;;;;22.35;12.93;;;18.70;99.90;;;;;;5012084;28;20295;-68
2021/08/12 07:22:19;;;;;;;19.50;12.48;;;18.80;99.90;;;;;;5011769;28;20295;-68
2021/08/12 07:24:47;;;;;;;;;;;18.80;99.90;;;;;;5013186;28;20292;-70
2021/08/12 07:27:13;;;;;;;;;;;18.80;99.90;;;;;;5008338;28;20065;-71
2021/08/12 07:29:40;;;;;;;;;;;18.80;99.90;;;;;;5013091;28;19958;-65
2021/08/12 07:32:08;;;;;;;18.08;11.32;;;18.90;99.90;;;;;;5010829;28;20377;-70
2021/08/12 07:34:44;;;;;;;17.80;11.30;;;19.00;99.90;;;;;;5012264;28;20206;-68
2021/08/12 07:37:12;;;;;;;21.65;10.23;;;19.10;99.90;;;;;;5012487;28;20199;-68
2021/08/12 07:39:39;;;;;;;18.50;8.52;;;19.10;99.90;;;;;;5010179;28;20209;-70
2021/08/12 07:42:06;;;;;;;13.65;6.78;;;19.10;99.90;;;;;;5011854;28;20711;-71
2021/08/12 07:44:34;;;;;;;9.88;5.80;;;19.20;99.90;;;;;;5009503;28;20228;-70
2021/08/12 07:47:01;;;;;;;13.82;6.25;;;19.20;99.90;;;;;;5012838;28;20231;-66
2021/08/12 07:49:28;;;;;;;12.57;5.28;;;19.30;99.90;;;;;;5011724;28;20292;-67
2021/08/12 07:51:56;;;;;;;8.68;5.50;;;19.40;99.90;;;;;;5015288;28;20564;-72
2021/08/12 07:54:25;;;;;;;12.52;5.28;;;19.50;99.90;;;;;;5010694;28;20204;-68
2021/08/12 07:56:52;;;;;;;10.85;5.70;;;19.50;99.90;;;;;;5012550;28;20193;-70
2021/08/12 07:59:19;;;;;;;13.85;5.45;;;19.60;99.90;;;;;;5009727;28;20232;-68
2021/08/12 08:01:46;;;;;;;9.75;5.40;;;19.70;99.90;;;;;;5013720;28;20254;-70
2021/08/12 08:04:13;;;;;;;12.45;4.90;;;19.70;99.90;;;;;;5010622;28;20242;-67
2021/08/12 08:06:40;;;;;;;12.27;4.95;;;19.80;99.90;;;;;;5009114;28;20255;-68
2021/08/12 08:09:07;;;;;;;8.90;4.30;;;19.80;99.90;;;;;;5019569;28;20232;-67
2021/08/12 08:11:35;;;;;;;10.35;4.07;;;19.90;99.90;;;;;;5014056;28;20208;-68
2021/08/12 08:14:02;;;;;;;;;;;20.00;99.90;;;;;;5010138;28;20086;-71
2021/08/12 08:16:29;;;;;;;9.05;3.40;;;20.10;99.90;;;;;;5008397;28;20203;-68
2021/08/12 08:18:56;;;;;;;4.80;3.05;;;20.10;99.90;;;;;;5007154;28;20208;-68
2021/08/12 08:21:24;;;;;;;8.38;3.50;;;20.30;99.90;;;;;;5013902;28;20231;-69
2021/08/12 08:23:50;;;;;;;;;;;20.50;99.90;;;;;;5010042;28;20513;-70
2021/08/12 08:26:17;;;;;;;7.82;3.00;;;20.70;99.90;;;;;;5012331;28;19963;-68
2021/08/12 08:28:46;;;;;;;8.15;3.30;;;20.90;99.90;;;;;;5009695;28;20205;-68
2021/08/12 08:31:13;;;;;;;6.57;3.30;;;21.20;99.90;;;;;;5012254;28;20216;-72
2021/08/12 08:33:39;;;;;;;6.15;3.72;;;21.50;99.70;;;;;;5006978;28;20200;-70
2021/08/12 08:36:07;;;;;;;6.50;2.63;;;21.70;98.80;;;;;;5010764;28;20197;-71
2021/08/12 08:38:34;;;;;;;4.88;2.80;;;21.90;98.00;;;;;;5014791;28;20204;-71
2021/08/12 08:41:02;;;;;;;8.10;2.80;;;22.10;97.00;;;;;;5012424;28;20259;-69
2021/08/12 08:43:31;;;;;;;6.00;2.70;;;22.30;96.20;;;;;;5007886;28;20668;-73
2021/08/12 08:46:01;;;;;;;5.90;2.60;;;22.60;95.40;;;;;;5008833;28;20213;-71
2021/08/12 08:48:33;;;;;;;4.75;2.60;;;22.70;94.30;;;;;;5009952;28;20204;-70
2021/08/12 08:51:00;;;;;;;6.70;2.70;;;22.90;93.30;;;;;;5011277;28;20208;-69
2021/08/12 08:53:30;;;;;;;5.80;2.47;;;23.00;92.80;;;;;;5012821;28;20192;-71
2021/08/12 08:55:57;;;;;;;4.80;2.40;;;23.20;92.10;;;;;;5008944;28;20279;-71
2021/08/12 08:58:24;;;;;;;6.07;2.13;;;23.40;91.40;;;;;;5012964;28;20221;-68
2021/08/12 09:00:52;;;;;;;;;;;23.50;90.80;;;;;;5011258;28;20216;-68
2021/08/12 09:03:20;;;;;;;5.18;2.20;;;23.60;90.30;;;;;;5010546;28;20412;-68
2021/08/12 09:05:47;;;;;;;7.57;2.40;;;23.70;90.00;;;;;;5010872;28;20197;-67
2021/08/12 09:08:14;;;;;;;4.00;2.50;;;23.70;90.00;;;;;;5008774;28;20282;-68
2021/08/12 09:10:41;;;;;;;6.35;2.35;;;23.70;89.70;;;;;;5006812;28;20279;-71
2021/08/12 09:13:08;;;;;;;4.47;2.10;;;23.70;89.50;;;;;;5014470;28;20235;-72
2021/08/12 09:15:40;;;;;;;7.35;2.40;;;23.80;88.90;;;;;;5009681;28;20639;-73
2021/08/12 09:18:21;;;;;;;6.65;2.53;;;23.90;88.00;;;;;;5014263;28;20665;-70
2021/08/12 09:20:50;;;;;;;4.25;2.13;;;24.20;87.10;;;;;;5007032;28;20350;-68
2021/08/12 09:23:21;;;;;;;;;;;24.80;86.10;;;;;;5011274;28;20227;-66
2021/08/12 09:25:48;;;;;;;6.22;2.40;;;25.60;83.40;;;;;;5011608;28;20406;-68
2021/08/12 09:28:24;;;;;;;5.38;2.20;;;26.60;80.80;;;;;;5009888;28;20203;-71
2021/08/12 09:31:08;;;;;;;4.53;2.30;;;27.60;77.30;;;;;;5006624;28;20206;-71
2021/08/12 09:33:44;;;;;;;3.60;2.07;;;28.40;72.90;;;;;;5007116;28;20210;-71
2021/08/12 09:36:25;;;;;;;5.43;2.10;;;28.80;69.60;;;;;;5012020;28;20203;-70
2021/08/12 09:39:09;;;;;;;4.97;2.20;;;28.90;67.40;;;;;;5009697;28;20210;-70
2021/08/12 09:41:40;;;;;;;4.32;2.00;;;28.60;66.20;;;;;;5010919;28;20742;-69
2021/08/12 09:44:07;;;;;;;4.35;2.42;;;28.40;66.00;;;;;;5007340;28;20265;-70
2021/08/12 09:46:35;;;;;;;;;;;28.30;65.80;;;;;;5011100;28;20675;-72
2021/08/12 09:49:03;;;;;;;6.72;2.30;;;28.00;65.70;;;;;;5009299;28;20060;-71
2021/08/12 09:51:33;;;;;;;6.93;2.42;;;27.80;65.60;;;;;;5012949;28;20644;-69
2021/08/12 09:54:05;;;;;;;6.57;2.63;;;27.60;66.30;;;;;;5009798;28;20429;-71
2021/08/12 09:56:32;;;;;;;5.60;2.70;;;27.50;66.90;;;;;;5010295;28;20187;-71
2021/08/12 09:59:06;;;;;;;5.70;2.20;;;27.40;67.20;;;;;;5005974;28;20262;-70
2021/08/12 10:01:33;;;;;;;6.15;2.60;;;27.20;67.70;;;;;;5009324;28;20599;-67
2021/08/12 10:04:22;;;;;;;6.50;2.20;;;27.20;68.50;;;;;;5010050;28;20060;-69
2021/08/12 10:06:49;;;;;;;6.80;2.47;;;27.10;67.80;;;;;;5006505;28;20230;-67
2021/08/12 10:09:17;;;;;;;6.07;2.50;;;27.30;68.50;;;;;;5007779;28;20251;-67
2021/08/12 10:11:44;;;;;;;7.80;2.28;;;27.60;67.60;;;;;;5008385;28;20230;-68
2021/08/12 10:14:11;;;;;;;6.10;2.28;;;27.60;66.50;;;;;;5007937;28;20816;-68
2021/08/12 10:16:39;;;;;;;8.60;2.67;;;27.60;65.80;;;;;;5010468;28;20544;-69
2021/08/12 10:19:09;;;;;;;7.72;2.40;;;27.60;65.80;;;;;;5008698;28;20306;-70
2021/08/12 10:21:38;;;;;;;4.82;2.40;;;27.60;66.30;;;;;;5009918;28;20210;-71
2021/08/12 10:24:06;;;;;;;4.30;1.95;;;27.60;65.90;;;;;;5008635;28;20204;-71
2021/08/12 10:26:34;;;;;;;6.80;2.50;;;27.60;65.50;;;;;;5008437;28;20302;-68
2021/08/12 10:29:05;;;;;;;6.32;2.50;;;27.60;65.00;;;;;;5008716;28;20200;-70
2021/08/12 10:31:33;;;;;;;8.13;2.35;;;27.60;64.20;;;;;;5009134;28;20234;-68
2021/08/12 10:34:00;;;;;;;5.25;2.50;;;27.50;63.50;;;;;;5008626;28;20788;-70
2021/08/12 10:36:28;;;;;;;7.43;2.40;;;27.30;63.70;;;;;;5005469;28;20231;-68
2021/08/12 10:38:56;;;;;;;4.35;2.35;;;27.20;64.90;;;;;;5009008;28;20786;-67
2021/08/12 10:41:23;;;;;;;6.45;2.50;;;27.20;65.50;;;;;;5010272;28;20263;-70
2021/08/12 10:43:54;;;;;;;5.10;2.55;;;27.20;65.90;;;;;;5009296;28;20664;-71
2021/08/12 10:46:33;;;;;;;7.15;3.00;;;27.10;65.90;;;;;;5007695;28;20743;-69
2021/08/12 10:49:28;;;;;;;5.55;2.58;;;27.10;66.20;;;;;;5007002;28;20634;-66
2021/08/12 10:52:03;;;;;;;6.90;2.60;;;27.10;67.20;;;;;;5009369;28;20212;-69
2021/08/12 10:54:30;;;;;;;8.90;2.70;;;27.10;67.10;;;;;;5005474;28;20652;-67
2021/08/12 10:57:25;;;;;;;6.30;2.63;;;27.10;67.10;;;;;;5008302;28;20196;-68
2021/08/12 10:59:53;;;;;;;3.92;2.28;;;27.10;67.00;;;;;;4985039;28;20636;-68
2021/08/12 11:02:45;;;;;;;10.52;3.05;;;27.00;67.50;;;;;;5007606;28;20288;-68
2021/08/12 11:05:13;;;;;;;3.95;2.30;;;27.00;68.20;;;;;;5009391;28;20672;-67
2021/08/12 11:07:54;;;;;;;4.30;2.50;;;27.10;68.30;;;;;;5011433;28;20227;-69
2021/08/12 11:10:20;;;;;;;7.32;2.60;;;27.20;68.30;;;;;;5007455;28;20207;-67
2021/08/12 11:13:03;;;;;;;4.90;2.53;;;27.20;68.30;;;;;;5011941;28;20315;-70
2021/08/12 11:15:57;;;;;;;4.30;2.72;;;27.20;68.80;;;;;;5013370;28;20296;-69
2021/08/12 11:18:45;;;;;;;7.80;2.80;;;27.40;68.50;;;;;;5005899;28;20201;-71
2021/08/12 11:21:40;;;;;;;7.90;2.63;;;27.50;68.10;;;;;;5009056;28;20279;-68
2021/08/12 11:24:10;;;;;;;7.47;3.08;;;27.40;68.00;;;;;;5008576;28;20224;-68
2021/08/12 11:27:07;;;;;;;4.50;2.58;;;27.60;68.50;;;;;;5009570;28;20204;-69
2021/08/12 11:29:35;;;;;;;12.20;3.05;;;28.30;67.70;;;;;;5010438;28;20216;-69
2021/08/12 11:32:13;;;;;;;5.40;2.70;;;28.90;66.10;;;;;;5010374;28;20355;-70
2021/08/12 11:34:46;;;;;;;6.40;2.50;;;29.40;64.60;;;;;;5008723;28;20204;-71
2021/08/12 11:37:15;;;;;;;4.38;2.55;;;30.00;62.50;;;;;;5006216;28;20200;-70
2021/08/12 11:39:55;;;;;;;5.18;2.90;;;30.20;61.00;;;;;;5010376;28;20304;-68
2021/08/12 11:42:31;;;;;;;5.57;3.00;;;30.50;59.70;;;;;;5003914;28;20204;-70
2021/08/12 11:45:00;;;;;;;6.40;3.05;;;30.50;58.80;;;;;;5003435;28;20196;-73
2021/08/12 11:47:27;;;;;;;5.03;2.80;;;30.60;58.40;;;;;;5004027;28;20255;-70
2021/08/12 11:49:55;;;;;;;6.35;3.08;;;30.70;57.80;;;;;;5012400;28;20200;-67
2021/08/12 11:52:26;;;;;;;5.80;3.10;;;30.60;57.30;;;;;;5018166;28;20676;-68
2021/08/12 11:54:59;;;;;;;5.20;3.00;;;30.30;57.40;;;;;;5013787;28;20204;-68
2021/08/12 11:57:41;;;;;;;6.85;3.30;;;30.00;57.60;;;;;;5011348;28;20179;-69
2021/08/12 12:00:10;;;;;;;6.15;3.80;;;29.60;58.20;;;;;;5013747;28;20525;-68
2021/08/12 12:02:48;;;;;;;3.83;2.80;;;29.20;59.40;;;;;;5014141;28;20283;-68
2021/08/12 12:05:15;;;;;;;5.82;3.17;;;28.70;60.60;;;;;;5011501;28;20203;-69
2021/08/12 12:07:47;;;;;;;7.20;3.42;;;28.50;61.60;;;;;;5010967;28;20255;-68
2021/08/12 12:10:25;;;;;;;5.45;3.55;;;28.20;63.40;;;;;;5011254;28;20262;-69
2021/08/12 12:12:51;;;;;;;8.30;3.45;;;28.10;63.80;;;;;;5012234;28;20232;-70
2021/08/12 12:15:35;;;;;;;10.40;4.38;;;28.30;64.00;;;;;;5012658;28;20245;-69
2021/08/12 12:18:02;;;;;;;6.75;3.40;;;28.60;63.60;;;;;;5012125;28;20250;-70
2021/08/12 12:20:30;;;;;;;4.65;2.83;;;29.00;63.00;;;;;;5010075;28;20204;-71
2021/08/12 12:22:59;;;;;;;5.75;3.30;;;29.30;62.20;;;;;;5011987;28;20231;-70
2021/08/12 12:25:28;;;;;;;10.70;3.20;;;29.70;61.10;;;;;;5016529;28;20125;-67
2021/08/12 12:27:55;;;;;;;;;;;30.00;60.20;;;;;;5008568;28;20185;-70
2021/08/12 12:30:24;;;;;;;6.05;3.05;;;30.20;59.80;;;;;;5011000;28;20694;-69
2021/08/12 12:33:01;;;;;;;7.82;3.60;;;30.40;58.70;;;;;;5012042;28;20318;-71
2021/08/12 12:35:31;;;;;;;6.13;3.40;;;30.50;58.40;;;;;;5009777;28;20200;-72
2021/08/12 12:38:00;;;;;;;4.97;3.03;;;30.60;57.90;;;;;;5011868;28;20258;-71
2021/08/12 12:40:31;;;;;;;5.50;3.10;;;30.50;57.20;;;;;;5008464;28;20254;-72
2021/08/12 12:42:59;;;;;;;6.70;3.38;;;30.30;57.30;;;;;;5010500;28;20234;-68
2021/08/12 12:45:26;;;;;;;4.88;2.92;;;30.30;57.50;;;;;;5007327;28;20208;-71
2021/08/12 12:47:53;;;;;;;6.20;3.33;;;30.20;57.40;;;;;;5010362;28;20255;-70
2021/08/12 12:50:21;;;;;;;7.18;3.70;;;30.10;57.70;;;;;;5011267;28;20208;-66
2021/08/12 12:52:56;;;;;;;5.20;3.20;;;30.10;58.10;;;;;;5011709;28;20208;-72
2021/08/12 12:55:25;;;;;;;4.15;3.20;;;30.10;58.10;;;;;;5008488;28;20211;-70
2021/08/12 12:57:53;;;;;;;6.30;3.17;;;30.10;58.10;;;;;;5010745;28;20211;-68
2021/08/12 13:00:25;;;;;;;6.32;3.10;;;29.90;58.10;;;;;;5009565;28;20211;-67
2021/08/12 13:02:53;;;;;;;5.88;3.40;;;29.50;58.40;;;;;;5009128;28;20212;-69
2021/08/12 13:05:20;;;;;;;4.78;2.90;;;29.20;59.10;;;;;;5008632;28;20204;-66
2021/08/12 13:07:47;;;;;;;5.55;3.35;;;28.80;60.10;;;;;;5008629;28;20230;-71
2021/08/12 13:10:19;;;;;;;4.47;3.03;;;28.60;60.80;;;;;;5009843;28;20211;-69
2021/08/12 13:12:58;;;;;;;6.10;3.95;;;28.40;61.60;;;;;;5009855;28;20298;-69
2021/08/12 13:15:26;;;;;;;6.25;3.53;;;28.20;62.20;;;;;;5009904;28;20258;-67